sensor_id;sensor_type;location;lat;lon;timestamp;temperature;humidity
70079;DHT22;57451;52.496;13.456;2022-09-01T00:01:56;17.20;57.60
70079;DHT22;57451;52.496;13.456;2022-09-01T00:04:26;17.30;57.50
70079;DHT22;57451;52.496;13.456;2022-09-01T00:06:52;17.30;57.30
70079;DHT22;57451;52.496;13.456;2022-09-01T00:09:21;17.30;57.30
70079;DHT22;57451;52.496;13.456;2022-09-01T00:11:50;17.30;57.10
70079;DHT22;57451;52.496;13.456;2022-09-01T00:14:18;17.20;57.20
70079;DHT22;57451;52.496;13.456;2022-09-01T00:16:44;17.20;57.00
70079;DHT22;57451;52.496;13.456;2022-09-01T00:19:10;17.20;57.00
70079;DHT22;57451;52.496;13.456;2022-09-01T00:21:40;17.20;57.10
70079;DHT22;57451;52.496;13.456;2022-09-01T00:24:07;17.20;57.00
70079;DHT22;57451;52.496;13.456;2022-09-01T00:26:34;17.10;56.80
70079;DHT22;57451;52.496;13.456;2022-09-01T00:29:00;17.10;56.70
70079;DHT22;57451;52.496;13.456;2022-09-01T00:31:27;17.10;56.90
70079;DHT22;57451;52.496;13.456;2022-09-01T00:33:53;17.10;56.90
70079;DHT22;57451;52.496;13.456;2022-09-01T00:36:20;17.10;56.80
70079;DHT22;57451;52.496;13.456;2022-09-01T00:38:50;17.10;56.70
70079;DHT22;57451;52.496;13.456;2022-09-01T00:41:18;17.10;56.70
70079;DHT22;57451;52.496;13.456;2022-09-01T00:43:46;17.00;56.70
70079;DHT22;57451;52.496;13.456;2022-09-01T00:46:16;17.00;56.80
70079;DHT22;57451;52.496;13.456;2022-09-01T00:48:42;17.00;56.70
70079;DHT22;57451;52.496;13.456;2022-09-01T00:51:10;17.00;56.70
70079;DHT22;57451;52.496;13.456;2022-09-01T00:53:39;17.00;56.70
70079;DHT22;57451;52.496;13.456;2022-09-01T00:56:07;17.00;56.80
70079;DHT22;57451;52.496;13.456;2022-09-01T00:58:35;17.00;56.80
70079;DHT22;57451;52.496;13.456;2022-09-01T01:01:03;17.00;56.90
70079;DHT22;57451;52.496;13.456;2022-09-01T01:03:29;17.00;57.10
70079;DHT22;57451;52.496;13.456;2022-09-01T01:05:57;17.00;57.10
70079;DHT22;57451;52.496;13.456;2022-09-01T01:08:29;17.00;57.00
70079;DHT22;57451;52.496;13.456;2022-09-01T01:11:02;17.00;57.00
70079;DHT22;57451;52.496;13.456;2022-09-01T01:13:46;17.00;57.10
70079;DHT22;57451;52.496;13.456;2022-09-01T01:16:14;17.00;57.30
70079;DHT22;57451;52.496;13.456;2022-09-01T01:18:40;16.90;56.90
70079;DHT22;57451;52.496;13.456;2022-09-01T01:21:13;16.90;57.10
70079;DHT22;57451;52.496;13.456;2022-09-01T01:24:02;16.90;57.40
70079;DHT22;57451;52.496;13.456;2022-09-01T01:26:32;16.90;57.80
70079;DHT22;57451;52.496;13.456;2022-09-01T01:28:59;16.80;57.70
70079;DHT22;57451;52.496;13.456;2022-09-01T01:31:27;16.80;57.90
70079;DHT22;57451;52.496;13.456;2022-09-01T01:33:55;16.80;57.90
70079;DHT22;57451;52.496;13.456;2022-09-01T01:36:23;16.80;58.40
70079;DHT22;57451;52.496;13.456;2022-09-01T01:38:56;16.80;58.70
70079;DHT22;57451;52.496;13.456;2022-09-01T01:41:30;16.80;58.40
70079;DHT22;57451;52.496;13.456;2022-09-01T01:43:59;16.80;57.90
70079;DHT22;57451;52.496;13.456;2022-09-01T01:46:26;16.80;58.30
70079;DHT22;57451;52.496;13.456;2022-09-01T01:48:53;16.80;59.10
70079;DHT22;57451;52.496;13.456;2022-09-01T01:51:21;16.70;59.10
70079;DHT22;57451;52.496;13.456;2022-09-01T01:53:51;16.70;58.80
70079;DHT22;57451;52.496;13.456;2022-09-01T01:56:18;16.70;59.50
70079;DHT22;57451;52.496;13.456;2022-09-01T01:58:45;16.70;59.70
70079;DHT22;57451;52.496;13.456;2022-09-01T02:01:13;16.70;59.50
70079;DHT22;57451;52.496;13.456;2022-09-01T02:03:42;16.60;59.60
70079;DHT22;57451;52.496;13.456;2022-09-01T02:06:09;16.70;60.00
70079;DHT22;57451;52.496;13.456;2022-09-01T02:08:37;16.60;59.80
70079;DHT22;57451;52.496;13.456;2022-09-01T02:11:05;16.60;59.60
70079;DHT22;57451;52.496;13.456;2022-09-01T02:13:32;16.60;59.80
70079;DHT22;57451;52.496;13.456;2022-09-01T02:16:03;16.60;59.80
70079;DHT22;57451;52.496;13.456;2022-09-01T02:18:36;16.60;59.80
70079;DHT22;57451;52.496;13.456;2022-09-01T02:21:04;16.50;60.30
70079;DHT22;57451;52.496;13.456;2022-09-01T02:23:36;16.50;60.40
70079;DHT22;57451;52.496;13.456;2022-09-01T02:26:03;16.50;60.20
70079;DHT22;57451;52.496;13.456;2022-09-01T02:28:34;16.50;60.60
70079;DHT22;57451;52.496;13.456;2022-09-01T02:31:04;16.50;60.40
70079;DHT22;57451;52.496;13.456;2022-09-01T02:33:35;16.50;60.50
70079;DHT22;57451;52.496;13.456;2022-09-01T02:36:08;16.50;60.50
70079;DHT22;57451;52.496;13.456;2022-09-01T02:38:35;16.50;60.50
70079;DHT22;57451;52.496;13.456;2022-09-01T02:41:02;16.50;61.00
70079;DHT22;57451;52.496;13.456;2022-09-01T02:43:29;16.40;60.70
70079;DHT22;57451;52.496;13.456;2022-09-01T02:45:58;16.40;60.70
70079;DHT22;57451;52.496;13.456;2022-09-01T02:48:28;16.40;61.10
70079;DHT22;57451;52.496;13.456;2022-09-01T02:51:05;16.40;61.10
70079;DHT22;57451;52.496;13.456;2022-09-01T02:53:33;16.40;60.80
70079;DHT22;57451;52.496;13.456;2022-09-01T02:56:01;16.30;61.40
70079;DHT22;57451;52.496;13.456;2022-09-01T02:58:29;16.30;61.30
70079;DHT22;57451;52.496;13.456;2022-09-01T03:00:58;16.20;61.50
70079;DHT22;57451;52.496;13.456;2022-09-01T03:03:25;16.20;62.20
70079;DHT22;57451;52.496;13.456;2022-09-01T03:05:52;16.20;62.10
70079;DHT22;57451;52.496;13.456;2022-09-01T03:08:23;16.10;62.00
70079;DHT22;57451;52.496;13.456;2022-09-01T03:10:51;16.00;61.90
70079;DHT22;57451;52.496;13.456;2022-09-01T03:13:22;16.00;62.20
70079;DHT22;57451;52.496;13.456;2022-09-01T03:15:49;16.00;62.30
70079;DHT22;57451;52.496;13.456;2022-09-01T03:18:16;16.00;62.10
70079;DHT22;57451;52.496;13.456;2022-09-01T03:20:45;15.90;62.60
70079;DHT22;57451;52.496;13.456;2022-09-01T03:23:13;15.90;62.60
70079;DHT22;57451;52.496;13.456;2022-09-01T03:25:44;15.80;62.50
70079;DHT22;57451;52.496;13.456;2022-09-01T03:28:12;15.80;63.20
70079;DHT22;57451;52.496;13.456;2022-09-01T03:30:43;15.80;63.50
70079;DHT22;57451;52.496;13.456;2022-09-01T03:33:10;15.70;63.40
70079;DHT22;57451;52.496;13.456;2022-09-01T03:35:36;15.70;63.30
70079;DHT22;57451;52.496;13.456;2022-09-01T03:38:03;15.60;63.00
70079;DHT22;57451;52.496;13.456;2022-09-01T03:40:31;15.60;63.00
70079;DHT22;57451;52.496;13.456;2022-09-01T03:42:59;15.60;63.70
70079;DHT22;57451;52.496;13.456;2022-09-01T03:45:26;15.50;63.40
70079;DHT22;57451;52.496;13.456;2022-09-01T03:47:52;15.50;63.10
70079;DHT22;57451;52.496;13.456;2022-09-01T03:50:22;15.50;63.20
70079;DHT22;57451;52.496;13.456;2022-09-01T03:52:50;15.40;63.20
70079;DHT22;57451;52.496;13.456;2022-09-01T03:55:20;15.40;63.00
70079;DHT22;57451;52.496;13.456;2022-09-01T03:57:50;15.40;63.50
70079;DHT22;57451;52.496;13.456;2022-09-01T04:00:20;15.30;63.70
70079;DHT22;57451;52.496;13.456;2022-09-01T04:02:50;15.30;63.90
70079;DHT22;57451;52.496;13.456;2022-09-01T04:05:18;15.20;64.20
70079;DHT22;57451;52.496;13.456;2022-09-01T04:07:54;15.20;64.70
70079;DHT22;57451;52.496;13.456;2022-09-01T04:10:22;15.20;65.10
70079;DHT22;57451;52.496;13.456;2022-09-01T04:12:48;15.10;64.60
70079;DHT22;57451;52.496;13.456;2022-09-01T04:15:17;15.10;65.10
70079;DHT22;57451;52.496;13.456;2022-09-01T04:17:44;15.00;65.20
70079;DHT22;57451;52.496;13.456;2022-09-01T04:20:29;15.00;65.00
70079;DHT22;57451;52.496;13.456;2022-09-01T04:23:05;15.00;65.80
70079;DHT22;57451;52.496;13.456;2022-09-01T04:25:36;15.00;66.00
70079;DHT22;57451;52.496;13.456;2022-09-01T04:28:03;14.90;66.40
70079;DHT22;57451;52.496;13.456;2022-09-01T04:30:39;14.90;66.00
70079;DHT22;57451;52.496;13.456;2022-09-01T04:33:06;14.90;65.80
70079;DHT22;57451;52.496;13.456;2022-09-01T04:35:37;14.90;65.70
70079;DHT22;57451;52.496;13.456;2022-09-01T04:38:03;14.90;66.00
70079;DHT22;57451;52.496;13.456;2022-09-01T04:40:36;14.80;66.10
70079;DHT22;57451;52.496;13.456;2022-09-01T04:43:04;14.80;66.10
70079;DHT22;57451;52.496;13.456;2022-09-01T04:45:30;14.70;66.10
70079;DHT22;57451;52.496;13.456;2022-09-01T04:47:59;14.70;66.40
70079;DHT22;57451;52.496;13.456;2022-09-01T04:50:25;14.70;66.40
70079;DHT22;57451;52.496;13.456;2022-09-01T04:53:20;14.70;66.30
70079;DHT22;57451;52.496;13.456;2022-09-01T04:55:48;14.70;66.40
70079;DHT22;57451;52.496;13.456;2022-09-01T04:58:17;14.70;66.60
70079;DHT22;57451;52.496;13.456;2022-09-01T05:00:44;14.70;67.10
70079;DHT22;57451;52.496;13.456;2022-09-01T05:03:14;14.60;67.20
70079;DHT22;57451;52.496;13.456;2022-09-01T05:06:12;14.60;66.60
70079;DHT22;57451;52.496;13.456;2022-09-01T05:08:45;14.60;66.50
70079;DHT22;57451;52.496;13.456;2022-09-01T05:11:19;14.60;66.60
70079;DHT22;57451;52.496;13.456;2022-09-01T05:13:47;14.50;66.50
70079;DHT22;57451;52.496;13.456;2022-09-01T05:16:15;14.50;66.80
70079;DHT22;57451;52.496;13.456;2022-09-01T05:18:48;14.50;67.30
70079;DHT22;57451;52.496;13.456;2022-09-01T05:21:17;14.50;66.90
70079;DHT22;57451;52.496;13.456;2022-09-01T05:23:44;14.50;66.90
70079;DHT22;57451;52.496;13.456;2022-09-01T05:26:13;14.50;67.20
70079;DHT22;57451;52.496;13.456;2022-09-01T05:28:42;14.50;67.00
70079;DHT22;57451;52.496;13.456;2022-09-01T05:31:08;14.50;67.20
70079;DHT22;57451;52.496;13.456;2022-09-01T05:33:36;14.50;66.60
70079;DHT22;57451;52.496;13.456;2022-09-01T05:36:06;14.50;66.80
70079;DHT22;57451;52.496;13.456;2022-09-01T05:38:33;14.50;67.50
70079;DHT22;57451;52.496;13.456;2022-09-01T05:41:03;14.50;67.10
70079;DHT22;57451;52.496;13.456;2022-09-01T05:43:30;14.60;67.30
70079;DHT22;57451;52.496;13.456;2022-09-01T05:45:56;14.60;67.60
70079;DHT22;57451;52.496;13.456;2022-09-01T05:48:24;14.60;67.30
70079;DHT22;57451;52.496;13.456;2022-09-01T05:50:51;14.70;67.20
70079;DHT22;57451;52.496;13.456;2022-09-01T05:53:22;14.70;67.60
70079;DHT22;57451;52.496;13.456;2022-09-01T05:55:51;14.70;66.80
70079;DHT22;57451;52.496;13.456;2022-09-01T05:58:24;14.80;67.60
70079;DHT22;57451;52.496;13.456;2022-09-01T06:00:52;14.90;67.00
70079;DHT22;57451;52.496;13.456;2022-09-01T06:03:19;14.90;67.10
70079;DHT22;57451;52.496;13.456;2022-09-01T06:05:48;15.00;67.00
70079;DHT22;57451;52.496;13.456;2022-09-01T06:08:23;15.10;66.80
70079;DHT22;57451;52.496;13.456;2022-09-01T06:10:51;15.10;66.50
70079;DHT22;57451;52.496;13.456;2022-09-01T06:13:18;15.20;66.40
70079;DHT22;57451;52.496;13.456;2022-09-01T06:15:47;15.30;66.50
70079;DHT22;57451;52.496;13.456;2022-09-01T06:18:14;15.40;66.10
70079;DHT22;57451;52.496;13.456;2022-09-01T06:20:51;15.40;65.50
70079;DHT22;57451;52.496;13.456;2022-09-01T06:23:17;15.50;65.50
70079;DHT22;57451;52.496;13.456;2022-09-01T06:25:45;15.60;65.70
70079;DHT22;57451;52.496;13.456;2022-09-01T06:28:15;15.60;65.40
70079;DHT22;57451;52.496;13.456;2022-09-01T06:30:42;15.70;65.50
70079;DHT22;57451;52.496;13.456;2022-09-01T06:33:11;15.80;65.40
70079;DHT22;57451;52.496;13.456;2022-09-01T06:35:42;15.90;65.20
70079;DHT22;57451;52.496;13.456;2022-09-01T06:38:11;15.90;65.10
70079;DHT22;57451;52.496;13.456;2022-09-01T06:40:45;16.00;65.30
70079;DHT22;57451;52.496;13.456;2022-09-01T06:43:13;16.10;64.90
70079;DHT22;57451;52.496;13.456;2022-09-01T06:45:46;16.20;65.50
70079;DHT22;57451;52.496;13.456;2022-09-01T06:48:20;16.30;65.40
70079;DHT22;57451;52.496;13.456;2022-09-01T06:50:48;16.40;64.60
70079;DHT22;57451;52.496;13.456;2022-09-01T06:53:15;16.40;64.90
70079;DHT22;57451;52.496;13.456;2022-09-01T06:55:48;16.50;64.50
70079;DHT22;57451;52.496;13.456;2022-09-01T06:58:15;16.60;64.90
70079;DHT22;57451;52.496;13.456;2022-09-01T07:00:47;16.70;64.70
70079;DHT22;57451;52.496;13.456;2022-09-01T07:03:14;16.80;64.80
70079;DHT22;57451;52.496;13.456;2022-09-01T07:05:52;16.90;64.20
70079;DHT22;57451;52.496;13.456;2022-09-01T07:08:26;17.00;63.40
70079;DHT22;57451;52.496;13.456;2022-09-01T07:11:07;17.10;63.00
70079;DHT22;57451;52.496;13.456;2022-09-01T07:13:34;17.10;62.70
70079;DHT22;57451;52.496;13.456;2022-09-01T07:16:02;17.20;62.10
70079;DHT22;57451;52.496;13.456;2022-09-01T07:18:36;17.20;62.00
70079;DHT22;57451;52.496;13.456;2022-09-01T07:21:05;17.30;61.70
70079;DHT22;57451;52.496;13.456;2022-09-01T07:23:34;17.40;61.60
70079;DHT22;57451;52.496;13.456;2022-09-01T07:26:06;17.40;61.20
70079;DHT22;57451;52.496;13.456;2022-09-01T07:28:35;17.50;60.80
70079;DHT22;57451;52.496;13.456;2022-09-01T07:31:01;17.50;61.00
70079;DHT22;57451;52.496;13.456;2022-09-01T07:33:30;17.60;60.10
70079;DHT22;57451;52.496;13.456;2022-09-01T07:35:58;17.60;60.50
70079;DHT22;57451;52.496;13.456;2022-09-01T07:38:25;17.70;60.30
70079;DHT22;57451;52.496;13.456;2022-09-01T07:40:53;17.80;59.60
70079;DHT22;57451;52.496;13.456;2022-09-01T07:43:40;17.90;60.00
70079;DHT22;57451;52.496;13.456;2022-09-01T07:46:28;17.90;59.70
70079;DHT22;57451;52.496;13.456;2022-09-01T07:49:01;18.00;59.80
70079;DHT22;57451;52.496;13.456;2022-09-01T07:51:29;18.10;59.10
70079;DHT22;57451;52.496;13.456;2022-09-01T07:53:57;18.10;58.80
70079;DHT22;57451;52.496;13.456;2022-09-01T07:56:24;18.20;59.10
70079;DHT22;57451;52.496;13.456;2022-09-01T07:58:53;18.20;58.10
70079;DHT22;57451;52.496;13.456;2022-09-01T08:01:24;18.20;58.30
70079;DHT22;57451;52.496;13.456;2022-09-01T08:03:52;18.30;57.30
70079;DHT22;57451;52.496;13.456;2022-09-01T08:06:22;18.30;57.90
70079;DHT22;57451;52.496;13.456;2022-09-01T08:08:53;18.40;58.30
70079;DHT22;57451;52.496;13.456;2022-09-01T08:11:23;18.50;57.60
70079;DHT22;57451;52.496;13.456;2022-09-01T08:13:54;18.60;57.10
70079;DHT22;57451;52.496;13.456;2022-09-01T08:16:25;18.60;57.10
70079;DHT22;57451;52.496;13.456;2022-09-01T08:18:53;18.70;56.90
70079;DHT22;57451;52.496;13.456;2022-09-01T08:21:44;18.80;56.90
70079;DHT22;57451;52.496;13.456;2022-09-01T08:24:25;18.90;56.60
70079;DHT22;57451;52.496;13.456;2022-09-01T08:26:52;18.90;55.90
70079;DHT22;57451;52.496;13.456;2022-09-01T08:29:19;19.00;56.30
70079;DHT22;57451;52.496;13.456;2022-09-01T08:31:46;19.10;55.10
70079;DHT22;57451;52.496;13.456;2022-09-01T08:34:13;19.10;54.70
70079;DHT22;57451;52.496;13.456;2022-09-01T08:36:42;19.20;54.60
70079;DHT22;57451;52.496;13.456;2022-09-01T08:39:08;19.20;54.90
70079;DHT22;57451;52.496;13.456;2022-09-01T08:41:54;19.20;55.40
70079;DHT22;57451;52.496;13.456;2022-09-01T08:44:30;19.20;54.80
70079;DHT22;57451;52.496;13.456;2022-09-01T08:47:02;19.30;54.90
70079;DHT22;57451;52.496;13.456;2022-09-01T08:49:33;19.40;54.50
70079;DHT22;57451;52.496;13.456;2022-09-01T08:52:13;19.50;54.00
70079;DHT22;57451;52.496;13.456;2022-09-01T08:54:44;19.60;53.80
70079;DHT22;57451;52.496;13.456;2022-09-01T08:57:16;19.60;52.00
70079;DHT22;57451;52.496;13.456;2022-09-01T09:00:23;19.70;52.40
70079;DHT22;57451;52.496;13.456;2022-09-01T09:02:56;19.70;52.70
70079;DHT22;57451;52.496;13.456;2022-09-01T09:05:37;19.80;52.30
70079;DHT22;57451;52.496;13.456;2022-09-01T09:08:23;19.80;52.20
70079;DHT22;57451;52.496;13.456;2022-09-01T09:10:58;19.80;52.80
70079;DHT22;57451;52.496;13.456;2022-09-01T09:13:34;20.00;52.40
70079;DHT22;57451;52.496;13.456;2022-09-01T09:16:09;20.10;50.50
70079;DHT22;57451;52.496;13.456;2022-09-01T09:18:42;20.20;51.80
70079;DHT22;57451;52.496;13.456;2022-09-01T09:21:14;20.30;51.80
70079;DHT22;57451;52.496;13.456;2022-09-01T09:23:45;20.40;51.30
70079;DHT22;57451;52.496;13.456;2022-09-01T09:26:13;20.50;50.90
70079;DHT22;57451;52.496;13.456;2022-09-01T09:28:39;20.50;49.70
70079;DHT22;57451;52.496;13.456;2022-09-01T09:31:27;20.60;50.00
70079;DHT22;57451;52.496;13.456;2022-09-01T09:33:54;20.60;49.40
70079;DHT22;57451;52.496;13.456;2022-09-01T09:36:23;20.70;50.40
70079;DHT22;57451;52.496;13.456;2022-09-01T09:39:06;20.80;49.20
70079;DHT22;57451;52.496;13.456;2022-09-01T09:41:33;20.90;50.00
70079;DHT22;57451;52.496;13.456;2022-09-01T09:44:03;21.00;49.50
70079;DHT22;57451;52.496;13.456;2022-09-01T09:46:36;21.10;47.90
70079;DHT22;57451;52.496;13.456;2022-09-01T09:49:14;21.10;49.10
70079;DHT22;57451;52.496;13.456;2022-09-01T09:51:43;21.20;49.50
70079;DHT22;57451;52.496;13.456;2022-09-01T09:54:14;21.30;47.20
70079;DHT22;57451;52.496;13.456;2022-09-01T09:56:41;21.30;47.60
70079;DHT22;57451;52.496;13.456;2022-09-01T09:59:20;21.30;47.70
70079;DHT22;57451;52.496;13.456;2022-09-01T10:01:49;21.30;46.70
70079;DHT22;57451;52.496;13.456;2022-09-01T10:04:35;21.30;47.50
70079;DHT22;57451;52.496;13.456;2022-09-01T10:07:26;21.30;46.60
70079;DHT22;57451;52.496;13.456;2022-09-01T10:09:54;21.30;47.50
70079;DHT22;57451;52.496;13.456;2022-09-01T10:12:21;21.20;46.70
70079;DHT22;57451;52.496;13.456;2022-09-01T10:14:51;21.30;48.00
70079;DHT22;57451;52.496;13.456;2022-09-01T10:17:23;21.40;48.00
70079;DHT22;57451;52.496;13.456;2022-09-01T10:19:53;21.40;47.10
70079;DHT22;57451;52.496;13.456;2022-09-01T10:22:21;21.40;49.10
70079;DHT22;57451;52.496;13.456;2022-09-01T10:24:48;21.50;48.00
70079;DHT22;57451;52.496;13.456;2022-09-01T10:27:18;21.60;46.70
70079;DHT22;57451;52.496;13.456;2022-09-01T10:29:47;21.70;46.70
70079;DHT22;57451;52.496;13.456;2022-09-01T10:32:21;21.80;47.10
70079;DHT22;57451;52.496;13.456;2022-09-01T10:34:49;22.00;45.90
70079;DHT22;57451;52.496;13.456;2022-09-01T10:37:16;22.30;45.60
70079;DHT22;57451;52.496;13.456;2022-09-01T10:40:08;22.50;45.10
70079;DHT22;57451;52.496;13.456;2022-09-01T10:42:35;22.70;44.80
70079;DHT22;57451;52.496;13.456;2022-09-01T10:45:02;23.00;44.30
70079;DHT22;57451;52.496;13.456;2022-09-01T10:47:31;23.40;43.60
70079;DHT22;57451;52.496;13.456;2022-09-01T10:50:00;23.60;42.60
70079;DHT22;57451;52.496;13.456;2022-09-01T10:52:56;23.50;42.60
70079;DHT22;57451;52.496;13.456;2022-09-01T10:55:26;23.60;42.70
70079;DHT22;57451;52.496;13.456;2022-09-01T10:58:02;23.80;41.20
70079;DHT22;57451;52.496;13.456;2022-09-01T11:00:51;24.00;42.60
70079;DHT22;57451;52.496;13.456;2022-09-01T11:06:43;24.80;43.20
70079;DHT22;57451;52.496;13.456;2022-09-01T11:09:19;25.20;41.50
70079;DHT22;57451;52.496;13.456;2022-09-01T11:11:54;25.60;40.30
70079;DHT22;57451;52.496;13.456;2022-09-01T11:14:26;25.80;39.60
70079;DHT22;57451;52.496;13.456;2022-09-01T11:17:21;26.10;39.80
70079;DHT22;57451;52.496;13.456;2022-09-01T11:19:57;25.90;37.50
70079;DHT22;57451;52.496;13.456;2022-09-01T11:22:28;25.90;39.50
70079;DHT22;57451;52.496;13.456;2022-09-01T11:25:30;25.90;38.10
70079;DHT22;57451;52.496;13.456;2022-09-01T11:28:04;25.80;37.30
70079;DHT22;57451;52.496;13.456;2022-09-01T11:30:39;25.60;38.10
70079;DHT22;57451;52.496;13.456;2022-09-01T11:33:42;25.40;39.00
70079;DHT22;57451;52.496;13.456;2022-09-01T11:36:23;25.20;38.30
70079;DHT22;57451;52.496;13.456;2022-09-01T11:38:53;25.20;40.90
70079;DHT22;57451;52.496;13.456;2022-09-01T11:41:21;25.20;39.10
70079;DHT22;57451;52.496;13.456;2022-09-01T11:43:51;25.30;39.00
70079;DHT22;57451;52.496;13.456;2022-09-01T11:46:21;25.30;40.10
70079;DHT22;57451;52.496;13.456;2022-09-01T11:48:49;25.40;39.50
70079;DHT22;57451;52.496;13.456;2022-09-01T11:51:18;25.50;39.20
70079;DHT22;57451;52.496;13.456;2022-09-01T11:53:46;25.50;39.10
70079;DHT22;57451;52.496;13.456;2022-09-01T11:56:15;25.50;38.40
70079;DHT22;57451;52.496;13.456;2022-09-01T11:58:42;25.40;38.20
70079;DHT22;57451;52.496;13.456;2022-09-01T12:01:14;25.30;39.50
70079;DHT22;57451;52.496;13.456;2022-09-01T12:03:41;25.20;38.00
70079;DHT22;57451;52.496;13.456;2022-09-01T12:06:10;25.00;38.00
70079;DHT22;57451;52.496;13.456;2022-09-01T12:08:39;24.90;39.30
70079;DHT22;57451;52.496;13.456;2022-09-01T12:11:07;24.70;37.60
70079;DHT22;57451;52.496;13.456;2022-09-01T12:13:35;24.50;38.40
70079;DHT22;57451;52.496;13.456;2022-09-01T12:16:03;24.50;39.70
70079;DHT22;57451;52.496;13.456;2022-09-01T12:18:32;24.50;38.70
70079;DHT22;57451;52.496;13.456;2022-09-01T12:21:02;24.40;38.20
70079;DHT22;57451;52.496;13.456;2022-09-01T12:23:31;24.40;39.30
70079;DHT22;57451;52.496;13.456;2022-09-01T12:26:01;24.40;40.10
70079;DHT22;57451;52.496;13.456;2022-09-01T12:28:28;24.40;40.10
70079;DHT22;57451;52.496;13.456;2022-09-01T12:31:00;24.40;40.10
70079;DHT22;57451;52.496;13.456;2022-09-01T12:33:27;24.20;38.60
70079;DHT22;57451;52.496;13.456;2022-09-01T12:36:19;24.20;39.70
70079;DHT22;57451;52.496;13.456;2022-09-01T12:38:47;24.00;38.90
70079;DHT22;57451;52.496;13.456;2022-09-01T12:41:27;23.90;39.40
70079;DHT22;57451;52.496;13.456;2022-09-01T12:43:56;23.70;40.30
70079;DHT22;57451;52.496;13.456;2022-09-01T12:46:44;23.60;39.80
70079;DHT22;57451;52.496;13.456;2022-09-01T12:49:17;23.30;41.00
70079;DHT22;57451;52.496;13.456;2022-09-01T12:51:45;23.10;42.20
70079;DHT22;57451;52.496;13.456;2022-09-01T12:54:13;23.00;42.30
70079;DHT22;57451;52.496;13.456;2022-09-01T12:56:47;22.90;42.30
70079;DHT22;57451;52.496;13.456;2022-09-01T12:59:21;22.80;42.90
70079;DHT22;57451;52.496;13.456;2022-09-01T13:01:50;22.70;43.50
70079;DHT22;57451;52.496;13.456;2022-09-01T13:04:29;22.60;43.60
70079;DHT22;57451;52.496;13.456;2022-09-01T13:07:01;22.60;43.40
70079;DHT22;57451;52.496;13.456;2022-09-01T13:09:27;22.60;44.10
70079;DHT22;57451;52.496;13.456;2022-09-01T13:12:09;22.60;44.20
70079;DHT22;57451;52.496;13.456;2022-09-01T13:14:35;22.60;43.40
70079;DHT22;57451;52.496;13.456;2022-09-01T13:17:03;22.70;43.60
70079;DHT22;57451;52.496;13.456;2022-09-01T13:19:29;22.80;44.80
70079;DHT22;57451;52.496;13.456;2022-09-01T13:21:55;22.90;44.40
70079;DHT22;57451;52.496;13.456;2022-09-01T13:24:21;23.10;44.80
70079;DHT22;57451;52.496;13.456;2022-09-01T13:26:48;23.30;43.20
70079;DHT22;57451;52.496;13.456;2022-09-01T13:29:20;23.40;43.00
70079;DHT22;57451;52.496;13.456;2022-09-01T13:31:46;23.60;42.80
70079;DHT22;57451;52.496;13.456;2022-09-01T13:34:14;23.70;42.70
70079;DHT22;57451;52.496;13.456;2022-09-01T13:36:40;23.80;41.60
70079;DHT22;57451;52.496;13.456;2022-09-01T13:39:06;23.80;41.30
70079;DHT22;57451;52.496;13.456;2022-09-01T13:41:32;23.70;41.40
70079;DHT22;57451;52.496;13.456;2022-09-01T13:43:58;23.60;39.90
70079;DHT22;57451;52.496;13.456;2022-09-01T13:46:25;23.40;40.70
70079;DHT22;57451;52.496;13.456;2022-09-01T13:48:52;23.40;41.70
70079;DHT22;57451;52.496;13.456;2022-09-01T13:51:24;23.40;40.60
70079;DHT22;57451;52.496;13.456;2022-09-01T13:53:51;23.40;40.70
70079;DHT22;57451;52.496;13.456;2022-09-01T13:56:17;23.40;42.20
70079;DHT22;57451;52.496;13.456;2022-09-01T13:58:43;23.40;43.10
70079;DHT22;57451;52.496;13.456;2022-09-01T14:01:10;23.40;42.20
70079;DHT22;57451;52.496;13.456;2022-09-01T14:03:36;23.30;42.70
70079;DHT22;57451;52.496;13.456;2022-09-01T14:06:05;23.30;41.20
70079;DHT22;57451;52.496;13.456;2022-09-01T14:08:32;23.30;41.30
70079;DHT22;57451;52.496;13.456;2022-09-01T14:10:59;23.30;40.60
70079;DHT22;57451;52.496;13.456;2022-09-01T14:13:25;23.20;42.10
70079;DHT22;57451;52.496;13.456;2022-09-01T14:15:52;23.20;41.70
70079;DHT22;57451;52.496;13.456;2022-09-01T14:18:20;23.20;42.00
70079;DHT22;57451;52.496;13.456;2022-09-01T14:20:49;23.30;41.50
70079;DHT22;57451;52.496;13.456;2022-09-01T14:23:17;23.30;42.20
70079;DHT22;57451;52.496;13.456;2022-09-01T14:25:47;23.30;42.60
70079;DHT22;57451;52.496;13.456;2022-09-01T14:28:13;23.40;42.10
70079;DHT22;57451;52.496;13.456;2022-09-01T14:30:41;23.40;40.50
70079;DHT22;57451;52.496;13.456;2022-09-01T14:33:09;23.40;41.50
70079;DHT22;57451;52.496;13.456;2022-09-01T14:35:37;23.40;42.00
70079;DHT22;57451;52.496;13.456;2022-09-01T14:38:04;23.40;41.00
70079;DHT22;57451;52.496;13.456;2022-09-01T14:40:32;23.40;41.60
70079;DHT22;57451;52.496;13.456;2022-09-01T14:43:00;23.60;41.80
70079;DHT22;57451;52.496;13.456;2022-09-01T14:45:27;23.70;41.40
70079;DHT22;57451;52.496;13.456;2022-09-01T14:47:58;23.80;41.90
70079;DHT22;57451;52.496;13.456;2022-09-01T14:50:26;24.10;40.30
70079;DHT22;57451;52.496;13.456;2022-09-01T14:52:55;24.30;41.10
70079;DHT22;57451;52.496;13.456;2022-09-01T14:55:23;24.50;41.60
70079;DHT22;57451;52.496;13.456;2022-09-01T14:57:49;24.80;39.00
70079;DHT22;57451;52.496;13.456;2022-09-01T15:00:19;24.90;40.30
70079;DHT22;57451;52.496;13.456;2022-09-01T15:02:46;25.00;39.80
70079;DHT22;57451;52.496;13.456;2022-09-01T15:05:13;25.20;38.90
70079;DHT22;57451;52.496;13.456;2022-09-01T15:07:41;25.30;39.30
70079;DHT22;57451;52.496;13.456;2022-09-01T15:10:08;25.30;39.50
70079;DHT22;57451;52.496;13.456;2022-09-01T15:12:35;25.30;39.20
70079;DHT22;57451;52.496;13.456;2022-09-01T15:15:06;25.30;39.00
70079;DHT22;57451;52.496;13.456;2022-09-01T15:17:34;25.20;39.30
70079;DHT22;57451;52.496;13.456;2022-09-01T15:20:03;25.20;39.30
70079;DHT22;57451;52.496;13.456;2022-09-01T15:22:48;25.10;37.90
70079;DHT22;57451;52.496;13.456;2022-09-01T15:25:15;24.90;38.90
70079;DHT22;57451;52.496;13.456;2022-09-01T15:27:41;24.80;39.30
70079;DHT22;57451;52.496;13.456;2022-09-01T15:30:09;24.70;39.70
70079;DHT22;57451;52.496;13.456;2022-09-01T15:32:44;24.70;37.30
70079;DHT22;57451;52.496;13.456;2022-09-01T15:35:11;24.60;38.80
70079;DHT22;57451;52.496;13.456;2022-09-01T15:37:38;24.60;39.40
70079;DHT22;57451;52.496;13.456;2022-09-01T15:40:05;24.60;38.60